Etusivu
METAR-TAF:

METAR-TAF

Lentoasemat :

Port Angeles, Washington, Yhdysvallat

Leveyspiiri: 48-08-27N, Pituuspiiri: 123-24-39W, korkeus merenpinnasta: 4 m

Tämänhetkinen sää

Tämä raportti tehtiin 37 minuuttia sitten, kello 02.10 UTC
Tuuli 4 kn etelästä/kaakosta
Lämpötila 6°C
Kosteus 93%
Ilmanpaine 1026 hPa
Näkyvyys: 16.1 km
selkeää

METAR: KNOW 230210Z AUTO 16004KT 10SM CLR 06/05 A3030 RMK AO2 T00600050

Aika: 18:47 (02:47 UTC)


TAF: puuttuu

Säähavainnot ja -ennusteet yli 4000 lentoasemalta (METAR- ja TAF-raportit).

Käytössä olevat sääasemat on merkitty karttaan keltaisilla ja punaisilla pisteillä.

Aseta hiiri pisteen päälle nähdäksesi sääaseman nimen.

Klikkaa sitten nähdäksesi säähavainnot ja -ennusteet.

Kartan vaihtaminen: klikkaa mustalla rastilla varustettuja vihreitä pisteitä, niin voit zoomata sisään; viivalla varustettua vihreää pistettä, niin voit zoomata ulos tai vihreitä nuolia, niin pääset viereisille kartoille.


METAR-TAF: